createdAt,value
2018-07-11T00:01:59.258Z,97.10
2018-07-11T00:04:27.478Z,97.10
2018-07-11T00:06:55.587Z,97.30
2018-07-11T00:09:23.749Z,97.40
2018-07-11T00:11:51.954Z,97.40
2018-07-11T00:14:20.150Z,97.70
2018-07-11T00:16:53.834Z,97.70
2018-07-11T00:19:21.986Z,97.70
2018-07-11T00:21:50.182Z,97.50
2018-07-11T00:24:18.382Z,97.50
2018-07-11T00:26:46.613Z,97.50
2018-07-11T00:29:14.786Z,97.70
2018-07-11T00:31:42.969Z,97.60
2018-07-11T00:34:11.221Z,97.60
2018-07-11T00:36:39.365Z,97.40
2018-07-11T00:39:07.575Z,97.40
2018-07-11T00:41:35.762Z,97.30
2018-07-11T00:44:03.978Z,97.30
2018-07-11T00:46:32.175Z,97.00
2018-07-11T00:49:00.382Z,97.50
2018-07-11T00:51:28.570Z,97.50
2018-07-11T00:53:56.778Z,97.50
2018-07-11T00:56:24.970Z,97.40
2018-07-11T00:59:02.667Z,96.90
2018-07-11T01:01:31.310Z,96.70
2018-07-11T01:04:01.066Z,96.30
2018-07-11T01:06:29.405Z,96.10
2018-07-11T01:08:58.069Z,95.60
2018-07-11T01:11:30.766Z,95.50
2018-07-11T01:13:58.953Z,95.20
2018-07-11T01:16:27.146Z,95.20
2018-07-11T01:18:59.930Z,95.10
2018-07-11T01:21:28.478Z,95.10
2018-07-11T01:23:56.674Z,95.20
2018-07-11T01:26:27.963Z,94.90
2018-07-11T01:28:56.124Z,94.90
2018-07-11T01:31:24.690Z,94.90
2018-07-11T01:33:53.070Z,94.80
2018-07-11T01:36:21.243Z,94.80
2018-07-11T01:38:49.331Z,94.90
2018-07-11T01:41:17.435Z,94.80
2018-07-11T01:43:46.078Z,94.90
2018-07-11T01:46:14.482Z,94.90
2018-07-11T01:48:42.977Z,94.90
2018-07-11T01:51:11.281Z,95.10
2018-07-11T01:53:39.470Z,94.90
2018-07-11T01:56:07.651Z,94.90
2018-07-11T01:58:35.746Z,94.90
2018-07-11T02:03:32.317Z,94.90
2018-07-11T02:06:00.586Z,94.90
2018-07-11T02:08:28.748Z,94.90
2018-07-11T02:10:57.390Z,95.00
2018-07-11T02:13:26.000Z,95.10
2018-07-11T02:15:54.173Z,95.10
2018-07-11T02:18:27.301Z,95.10
2018-07-11T02:20:56.035Z,95.20
2018-07-11T02:23:24.877Z,95.20
2018-07-11T02:25:53.012Z,95.30
2018-07-11T02:28:21.140Z,95.30
2018-07-11T02:30:49.318Z,95.40
2018-07-11T02:33:17.404Z,95.40
2018-07-11T02:35:45.508Z,95.80
2018-07-11T02:38:13.594Z,96.00
2018-07-11T02:40:41.724Z,96.10
2018-07-11T02:43:09.913Z,96.00
2018-07-11T02:45:38.090Z,96.20
2018-07-11T02:48:06.179Z,96.20
2018-07-11T02:50:34.286Z,96.30
2018-07-11T02:53:02.383Z,96.50
2018-07-11T02:57:58.473Z,97.00
2018-07-11T03:00:26.578Z,96.80
2018-07-11T03:02:54.683Z,96.60
2018-07-11T03:05:22.878Z,96.50
2018-07-11T03:07:51.054Z,96.50
2018-07-11T03:10:19.196Z,96.40
2018-07-11T03:12:47.363Z,96.30
2018-07-11T03:15:15.469Z,96.30
2018-07-11T03:17:43.581Z,96.60
2018-07-11T03:20:11.779Z,96.60
2018-07-11T03:22:39.958Z,96.70
2018-07-11T03:25:08.050Z,96.80
2018-07-11T03:27:36.154Z,96.90
2018-07-11T03:30:04.242Z,96.90
2018-07-11T03:32:32.399Z,96.90
2018-07-11T03:35:00.470Z,97.00
2018-07-11T03:37:28.690Z,96.30
2018-07-11T03:39:56.839Z,96.10
2018-07-11T03:42:24.947Z,95.80
2018-07-11T03:44:53.026Z,95.90
2018-07-11T03:47:21.143Z,96.30
2018-07-11T03:49:49.229Z,96.30
2018-07-11T03:52:17.341Z,96.60
2018-07-11T03:54:45.426Z,96.60
2018-07-11T03:57:13.522Z,96.50
2018-07-11T03:59:41.622Z,96.60
2018-07-11T04:02:09.747Z,96.60
2018-07-11T04:04:37.910Z,96.40
2018-07-11T04:07:06.014Z,96.40
2018-07-11T04:09:34.105Z,96.40
2018-07-11T04:12:02.206Z,96.50
2018-07-11T04:58:12.530Z,96.60
2018-07-11T05:00:40.678Z,95.70
2018-07-11T05:03:08.793Z,95.80
2018-07-11T05:05:36.982Z,95.70
2018-07-11T05:08:05.083Z,95.60
2018-07-11T05:10:33.170Z,96.00
2018-07-11T05:13:01.291Z,95.60
2018-07-11T05:15:29.490Z,95.40
2018-07-11T05:17:57.690Z,95.40
2018-07-11T05:20:25.880Z,95.90
2018-07-11T05:22:53.989Z,96.30
2018-07-11T05:25:22.174Z,96.00
2018-07-11T05:30:18.374Z,96.20
2018-07-11T05:32:46.486Z,96.20
2018-07-11T05:35:14.673Z,95.60
2018-07-11T05:37:42.881Z,96.00
2018-07-11T05:40:12.046Z,96.20
2018-07-11T05:42:40.198Z,96.20
2018-07-11T05:45:08.377Z,95.80
2018-07-11T05:50:04.515Z,95.40
2018-07-11T05:52:32.702Z,95.00
2018-07-11T05:55:00.893Z,95.30
2018-07-11T05:57:28.987Z,94.70
2018-07-11T05:59:57.131Z,94.90
2018-07-11T06:02:25.195Z,94.50
2018-07-11T06:04:53.436Z,94.90
2018-07-11T06:07:21.593Z,94.20
2018-07-11T06:09:49.789Z,95.00
2018-07-11T06:12:17.994Z,94.40
2018-07-11T06:14:46.169Z,93.90
2018-07-11T06:17:14.417Z,94.30
2018-07-11T06:19:42.590Z,93.80
2018-07-11T06:22:10.686Z,93.70
2018-07-11T06:24:38.765Z,93.50
2018-07-11T06:27:06.874Z,94.10
2018-07-11T06:29:34.965Z,93.60
2018-07-11T06:32:03.210Z,93.20
2018-07-11T06:34:31.365Z,94.20
2018-07-11T06:36:59.466Z,93.70
2018-07-11T06:39:28.107Z,93.70
2018-07-11T06:41:56.310Z,93.20
2018-07-11T06:44:24.501Z,92.80
2018-07-11T06:46:52.579Z,93.00
2018-07-11T06:49:20.685Z,92.20
2018-07-11T06:51:48.772Z,92.90
2018-07-11T06:54:16.937Z,92.40
2018-07-11T06:56:45.104Z,92.90
2018-07-11T06:59:13.259Z,92.70
2018-07-11T07:01:41.381Z,92.90
2018-07-11T07:04:09.477Z,92.30
2018-07-11T07:06:37.681Z,92.30
2018-07-11T07:09:06.518Z,92.70
2018-07-11T07:11:34.774Z,92.70
2018-07-11T07:14:02.897Z,92.50
2018-07-11T07:16:31.130Z,92.80
2018-07-11T07:18:59.166Z,92.40
2018-07-11T07:21:27.310Z,91.60
2018-07-11T07:23:55.490Z,91.40
2018-07-11T07:26:23.688Z,91.80
2018-07-11T07:28:51.870Z,92.30
2018-07-11T07:31:19.977Z,91.50
2018-07-11T07:33:48.170Z,91.60
2018-07-11T07:36:16.249Z,91.30
2018-07-11T07:41:12.592Z,90.80
2018-07-11T07:43:41.945Z,91.40
2018-07-11T07:46:10.086Z,90.50
2018-07-11T07:48:38.186Z,90.60
2018-07-11T07:51:06.275Z,90.60
2018-07-11T07:53:34.614Z,90.40
2018-07-11T07:56:02.845Z,90.60
2018-07-11T07:58:31.021Z,90.10
2018-07-11T08:00:59.173Z,90.60
2018-07-11T08:03:27.723Z,90.80
2018-07-11T08:05:55.874Z,90.20
2018-07-11T08:10:51.897Z,90.60
2018-07-11T08:13:20.114Z,90.70
2018-07-11T08:15:48.173Z,90.30
2018-07-11T08:18:16.283Z,90.80
2018-07-11T08:20:44.471Z,90.80
2018-07-11T08:23:26.915Z,90.90
2018-07-11T08:26:07.014Z,91.00
2018-07-11T08:30:51.085Z,91.00
2018-07-11T08:33:32.162Z,90.80
2018-07-11T08:38:15.695Z,90.20
2018-07-11T08:40:57.306Z,89.50
2018-07-11T08:43:32.243Z,88.10
2018-07-11T08:46:25.573Z,88.40
2018-07-11T08:49:09.160Z,88.90
2018-07-11T08:51:51.426Z,90.20
2018-07-11T08:56:37.655Z,90.30
2018-07-11T09:01:26.470Z,89.60
2018-07-11T09:04:20.981Z,87.70
2018-07-11T09:11:14.762Z,88.50
2018-07-11T09:14:02.811Z,86.80
2018-07-11T09:16:54.175Z,87.80
2018-07-11T09:19:32.850Z,89.00
2018-07-11T09:22:17.281Z,89.60
2018-07-11T09:24:47.660Z,89.30
2018-07-11T09:27:15.833Z,89.00
2018-07-11T09:29:44.968Z,89.20
2018-07-11T09:32:13.682Z,88.80
2018-07-11T09:34:42.585Z,86.80
2018-07-11T09:37:10.825Z,87.70
2018-07-11T09:39:39.187Z,86.80
2018-07-11T09:42:07.386Z,86.60
2018-07-11T09:44:35.575Z,85.40
2018-07-11T09:47:09.065Z,85.40
2018-07-11T09:49:37.191Z,85.20
2018-07-11T09:52:05.366Z,83.60
2018-07-11T09:54:33.521Z,83.90
2018-07-11T09:57:01.839Z,85.40
2018-07-11T09:59:30.010Z,82.20
2018-07-11T10:01:58.237Z,81.70
2018-07-11T10:04:27.009Z,81.70
2018-07-11T10:06:55.164Z,80.80
2018-07-11T10:09:23.331Z,81.40
2018-07-11T10:11:51.775Z,83.80
2018-07-11T10:14:20.055Z,82.80
2018-07-11T10:16:48.214Z,83.10
2018-07-11T10:19:16.334Z,82.60
2018-07-11T10:21:44.569Z,82.80
2018-07-11T10:24:12.726Z,82.80
2018-07-11T10:26:40.805Z,82.60
2018-07-11T10:29:08.911Z,83.90
2018-07-11T10:31:37.002Z,82.60
2018-07-11T10:34:05.170Z,83.40
2018-07-11T10:36:33.238Z,82.70
2018-07-11T10:39:01.402Z,82.50
2018-07-11T10:41:29.489Z,83.10
2018-07-11T10:43:57.599Z,82.90
2018-07-11T10:46:25.686Z,80.30
2018-07-11T10:48:53.846Z,80.90
2018-07-11T10:51:21.887Z,82.80
2018-07-11T10:53:49.986Z,84.60
2018-07-11T10:56:18.083Z,81.10
2018-07-11T10:58:46.198Z,78.30
2018-07-11T11:01:14.418Z,79.00
2018-07-11T11:03:42.482Z,79.40
2018-07-11T11:06:10.581Z,81.90
2018-07-11T11:08:38.778Z,82.40
2018-07-11T11:11:06.859Z,82.80
2018-07-11T11:13:34.981Z,82.50
2018-07-11T11:16:03.067Z,80.90
2018-07-11T11:18:31.177Z,82.50
2018-07-11T11:20:59.367Z,82.20
2018-07-11T11:23:27.469Z,82.00
2018-07-11T11:25:55.663Z,84.00
2018-07-11T11:28:23.746Z,83.50
2018-07-11T11:33:19.852Z,82.30
2018-07-11T11:35:47.990Z,82.10
2018-07-11T11:38:16.149Z,79.50
2018-07-11T11:40:44.243Z,78.30
2018-07-11T11:43:12.361Z,78.80
2018-07-11T11:45:40.550Z,80.20
2018-07-11T11:48:08.765Z,79.30
2018-07-11T11:50:37.042Z,79.10
2018-07-11T11:53:05.209Z,78.80
2018-07-11T11:55:33.353Z,78.80
2018-07-11T11:58:01.542Z,80.20
2018-07-11T12:00:29.645Z,80.00
2018-07-11T12:02:57.835Z,81.60
2018-07-11T12:05:25.942Z,80.20
2018-07-11T12:07:54.134Z,79.70
2018-07-11T12:10:22.242Z,80.60
2018-07-11T12:12:50.413Z,82.20
2018-07-11T12:15:18.535Z,81.80
2018-07-11T12:17:46.798Z,80.40
2018-07-11T12:20:15.942Z,80.80
2018-07-11T12:22:44.270Z,80.90
2018-07-11T12:25:13.382Z,81.40
2018-07-11T12:27:41.461Z,83.50
2018-07-11T12:30:10.589Z,83.30
2018-07-11T12:32:38.678Z,83.60
2018-07-11T12:35:06.797Z,83.70
2018-07-11T12:37:34.984Z,84.30
2018-07-11T12:40:03.482Z,85.80
2018-07-11T12:42:31.608Z,86.80
2018-07-11T12:44:59.685Z,87.10
2018-07-11T12:47:33.265Z,87.10
2018-07-11T12:50:01.466Z,86.20
2018-07-11T12:52:29.622Z,85.70
2018-07-11T12:54:57.702Z,87.10
2018-07-11T12:57:25.805Z,88.20
2018-07-11T12:59:53.911Z,88.60
2018-07-11T13:02:21.999Z,89.20
2018-07-11T13:04:50.118Z,88.50
2018-07-11T13:07:18.295Z,89.30
2018-07-11T13:09:46.398Z,90.20
2018-07-11T13:12:14.498Z,88.10
2018-07-11T13:14:42.714Z,87.70
2018-07-11T13:17:10.802Z,88.70
2018-07-11T13:19:39.003Z,85.80
2018-07-11T13:22:07.085Z,86.00
2018-07-11T13:24:35.290Z,80.00
2018-07-11T13:27:03.494Z,78.60
2018-07-11T13:29:31.695Z,77.50
2018-07-11T13:31:59.890Z,77.80
2018-07-11T13:34:28.078Z,80.00
2018-07-11T13:36:56.190Z,76.40
2018-07-11T13:39:24.369Z,75.00
2018-07-11T13:41:52.806Z,74.30
2018-07-11T13:44:20.997Z,76.70
2018-07-11T13:46:49.189Z,73.10
2018-07-11T13:49:17.395Z,76.90
2018-07-11T13:51:46.686Z,75.20
2018-07-11T13:54:16.107Z,74.40
2018-07-11T13:59:20.046Z,75.00
2018-07-11T14:01:48.416Z,75.10
2018-07-11T14:04:16.530Z,76.60
2018-07-11T14:06:44.941Z,74.80
2018-07-11T14:09:13.851Z,74.20
2018-07-11T14:11:41.931Z,75.00
2018-07-11T14:14:11.130Z,77.50
2018-07-11T14:16:39.180Z,79.40
2018-07-11T14:19:07.358Z,78.30
2018-07-11T14:21:35.575Z,76.80
2018-07-11T14:24:03.759Z,77.00
2018-07-11T14:26:33.210Z,77.60
2018-07-11T14:29:02.442Z,81.00
2018-07-11T14:31:32.270Z,88.90
2018-07-11T14:34:01.306Z,92.10
2018-07-11T14:36:29.465Z,92.60
2018-07-11T14:38:57.567Z,93.50
2018-07-11T14:41:25.794Z,94.40
2018-07-11T14:43:54.824Z,94.80
2018-07-11T14:46:24.502Z,95.80
2018-07-11T14:48:52.896Z,96.00
2018-07-11T14:51:21.125Z,96.40
2018-07-11T14:53:49.170Z,96.80
2018-07-11T14:56:17.322Z,97.20
2018-07-11T14:58:45.526Z,97.50
2018-07-11T15:01:13.730Z,97.40
2018-07-11T15:03:41.904Z,97.70
2018-07-11T15:06:10.011Z,97.50
2018-07-11T15:08:38.441Z,97.60
2018-07-11T15:11:06.530Z,97.40
2018-07-11T15:13:34.703Z,97.80
2018-07-11T15:16:02.861Z,97.80
2018-07-11T15:18:30.979Z,98.00
2018-07-11T15:20:59.274Z,98.20
2018-07-11T15:23:27.410Z,98.30
2018-07-11T15:25:55.490Z,98.60
2018-07-11T15:28:23.610Z,98.70
2018-07-11T15:30:51.800Z,98.90
2018-07-11T15:33:20.526Z,98.70
2018-07-11T15:35:48.924Z,98.70
2018-07-11T15:38:17.142Z,98.20
2018-07-11T15:40:45.318Z,98.20
2018-07-11T15:43:13.530Z,97.70
2018-07-11T15:45:41.719Z,96.70
2018-07-11T15:48:11.105Z,97.00
2018-07-11T15:50:39.598Z,97.40
2018-07-11T15:53:07.742Z,97.60
2018-07-11T15:55:36.173Z,98.10
2018-07-11T15:58:12.763Z,98.00
2018-07-11T16:00:42.190Z,97.90
2018-07-11T16:03:11.079Z,98.10
2018-07-11T16:05:40.858Z,97.00
2018-07-11T16:08:14.730Z,96.60
2018-07-11T16:10:47.196Z,96.10
2018-07-11T16:13:15.461Z,96.50
2018-07-11T16:15:44.293Z,96.40
2018-07-11T16:18:13.286Z,96.40
2018-07-11T16:20:41.399Z,96.60
2018-07-11T16:23:10.269Z,96.70
2018-07-11T16:25:40.163Z,97.30
2018-07-11T16:28:08.349Z,97.60
2018-07-11T16:30:36.765Z,97.70
2018-07-11T16:33:05.151Z,98.00
2018-07-11T16:35:33.490Z,98.50
2018-07-11T16:38:02.094Z,98.40
2018-07-11T16:40:31.120Z,98.20
2018-07-11T16:42:59.470Z,98.00
2018-07-11T16:45:28.130Z,98.00
2018-07-11T16:47:56.938Z,97.90
2018-07-11T16:50:25.151Z,97.60
2018-07-11T16:52:53.731Z,97.70
2018-07-11T16:55:21.858Z,97.10
2018-07-11T16:57:51.298Z,97.40
2018-07-11T17:00:23.734Z,97.70
2018-07-11T17:03:08.093Z,97.80
2018-07-11T17:05:47.446Z,97.90
2018-07-11T17:08:21.245Z,97.70
2018-07-11T17:10:49.632Z,97.80
2018-07-11T17:13:21.682Z,98.40
2018-07-11T17:15:51.401Z,98.40
2018-07-11T17:18:48.660Z,98.70
2018-07-11T17:21:31.989Z,98.80
2018-07-11T17:24:03.773Z,99.10
2018-07-11T17:26:31.930Z,98.80
2018-07-11T17:29:00.554Z,98.90
2018-07-11T17:31:29.266Z,99.20
2018-07-11T17:33:58.698Z,99.10
2018-07-11T17:36:29.293Z,99.20
2018-07-11T17:38:57.385Z,99.40
2018-07-11T17:41:25.471Z,99.70
2018-07-11T17:43:53.567Z,99.90
2018-07-11T17:46:21.945Z,99.90
2018-07-11T17:49:02.490Z,99.90
2018-07-11T17:51:36.558Z,99.90
2018-07-11T17:54:04.678Z,99.90
2018-07-11T17:57:05.865Z,99.90
2018-07-11T17:59:44.101Z,99.90
2018-07-11T18:02:28.011Z,99.80
2018-07-11T18:07:16.669Z,99.90
2018-07-11T18:09:55.006Z,99.80
2018-07-11T18:12:25.370Z,99.90
2018-07-11T18:15:32.985Z,99.90
2018-07-11T18:18:17.578Z,99.90
2018-07-11T18:21:54.784Z,99.90
2018-07-11T18:24:36.307Z,99.90
2018-07-11T18:27:07.173Z,99.90
2018-07-11T18:29:49.382Z,99.90
2018-07-11T18:36:43.905Z,99.90
2018-07-11T18:39:24.751Z,99.90
2018-07-11T18:42:45.058Z,99.50
2018-07-11T18:45:26.242Z,99.30
2018-07-11T18:48:07.970Z,99.40
2018-07-11T18:50:48.197Z,99.20
2018-07-11T18:53:21.705Z,99.30
2018-07-11T18:55:56.235Z,99.50
2018-07-11T18:59:34.630Z,99.50
2018-07-11T19:02:06.950Z,99.60
2018-07-11T19:06:55.291Z,99.60
2018-07-11T19:09:33.498Z,99.90
2018-07-11T19:12:13.914Z,99.90
2018-07-11T19:14:51.998Z,99.80
2018-07-11T19:17:27.640Z,99.10
2018-07-11T19:20:07.438Z,98.80
2018-07-11T19:22:49.366Z,98.70
2018-07-11T19:27:33.106Z,98.20
2018-07-11T19:30:11.716Z,98.20
2018-07-11T19:33:21.010Z,99.20
2018-07-11T19:36:06.210Z,99.40
2018-07-11T19:38:37.205Z,98.80
2018-07-11T19:41:27.302Z,98.60
2018-07-11T19:44:34.194Z,98.50
2018-07-11T19:47:13.286Z,99.10
2018-07-11T19:50:48.426Z,99.30
2018-07-11T19:53:27.054Z,99.50
2018-07-11T19:57:00.415Z,99.50
2018-07-11T19:59:28.513Z,99.70
2018-07-11T20:01:56.850Z,99.90
2018-07-11T20:04:25.116Z,99.90
2018-07-11T20:06:53.214Z,99.90
2018-07-11T20:09:21.442Z,99.90
2018-07-11T20:11:50.158Z,99.90
2018-07-11T20:14:18.258Z,99.90
2018-07-11T20:16:46.363Z,99.90
2018-07-11T20:19:15.278Z,99.90
2018-07-11T20:21:43.414Z,99.90
2018-07-11T20:24:11.562Z,99.90
2018-07-11T20:26:39.657Z,99.90
2018-07-11T20:29:07.749Z,99.90
2018-07-11T20:31:35.938Z,99.90
2018-07-11T20:34:04.023Z,99.90
2018-07-11T20:36:32.129Z,99.90
2018-07-11T20:39:00.233Z,99.90
2018-07-11T20:41:28.342Z,99.90
2018-07-11T20:43:56.457Z,99.90
2018-07-11T20:46:24.564Z,99.90
2018-07-11T20:48:52.646Z,99.90
2018-07-11T20:51:20.811Z,99.90
2018-07-11T20:53:48.946Z,99.90
2018-07-11T20:56:17.132Z,99.90
2018-07-11T20:58:56.796Z,99.90
2018-07-11T21:01:36.331Z,99.90
2018-07-11T21:04:31.009Z,99.90
2018-07-11T21:07:13.415Z,99.90
2018-07-11T21:09:52.782Z,99.90
2018-07-11T21:12:35.750Z,99.90
2018-07-11T21:15:21.614Z,99.90
2018-07-11T21:19:08.126Z,99.90
2018-07-11T21:21:37.239Z,99.90
2018-07-11T21:24:06.775Z,99.90
2018-07-11T21:26:35.274Z,99.90
2018-07-11T21:29:03.509Z,99.90
2018-07-11T21:31:31.680Z,99.90
2018-07-11T21:33:59.771Z,99.90
2018-07-11T21:36:28.066Z,99.90
2018-07-11T21:38:56.153Z,99.90
2018-07-11T21:41:24.265Z,99.90
2018-07-11T21:43:52.465Z,99.90
2018-07-11T21:46:20.894Z,99.90
2018-07-11T21:48:49.059Z,99.90
2018-07-11T21:51:17.168Z,99.90
2018-07-11T21:53:45.253Z,99.90
2018-07-11T21:56:13.373Z,99.90
2018-07-11T21:58:41.542Z,99.90
2018-07-11T22:01:10.819Z,99.90
2018-07-11T22:03:38.970Z,99.90
2018-07-11T22:06:07.081Z,99.90
2018-07-11T22:08:35.505Z,99.90
2018-07-11T22:11:03.674Z,99.90
2018-07-11T22:13:31.874Z,99.90
2018-07-11T22:15:59.991Z,99.90
2018-07-11T22:18:32.602Z,99.90
2018-07-11T22:21:00.607Z,99.90
2018-07-11T22:23:28.051Z,99.90
2018-07-11T22:25:55.185Z,99.90
2018-07-11T22:28:22.329Z,99.90
2018-07-11T22:30:49.509Z,99.90
2018-07-11T22:33:16.778Z,99.90
2018-07-11T22:35:43.937Z,99.90
2018-07-11T22:38:11.534Z,99.90
2018-07-11T22:40:39.030Z,99.90
2018-07-11T22:43:06.398Z,99.90
2018-07-11T22:45:33.691Z,99.90
2018-07-11T22:48:00.837Z,99.90
2018-07-11T22:50:28.241Z,99.90
2018-07-11T22:52:55.385Z,99.90
2018-07-11T22:55:22.554Z,99.90
2018-07-11T22:57:49.972Z,99.90
2018-07-11T23:00:17.355Z,99.90
2018-07-11T23:02:44.538Z,99.90
2018-07-11T23:05:11.691Z,99.90
2018-07-11T23:07:38.853Z,99.90
2018-07-11T23:10:06.944Z,99.90
2018-07-11T23:12:34.077Z,99.90
2018-07-11T23:15:01.263Z,99.90
2018-07-11T23:17:28.411Z,99.90
2018-07-11T23:19:55.574Z,99.90
2018-07-11T23:22:22.713Z,99.90
2018-07-11T23:24:49.869Z,99.90
2018-07-11T23:27:17.034Z,99.90
2018-07-11T23:29:44.188Z,99.90
2018-07-11T23:32:11.330Z,99.90
2018-07-11T23:34:38.487Z,99.90
2018-07-11T23:37:05.634Z,99.90
2018-07-11T23:39:32.803Z,99.90
2018-07-11T23:41:59.947Z,99.90
2018-07-11T23:44:27.090Z,99.90
2018-07-11T23:46:54.242Z,99.90
2018-07-11T23:49:21.389Z,99.90
2018-07-11T23:51:48.533Z,99.90
2018-07-11T23:54:15.673Z,99.90
2018-07-11T23:56:42.836Z,99.90
2018-07-11T23:59:10.006Z,99.90
